sensor_id;sensor_type;location;lat;lon;timestamp;P1;durP1;ratioP1;P2;durP2;ratioP2
74674;SDS011;63200;48.810;12.352;2024-03-23T00:55:18;22.38;;;14.75;;
74674;SDS011;63200;48.810;12.352;2024-03-23T00:57:44;21.75;;;14.15;;
74674;SDS011;63200;48.810;12.352;2024-03-23T01:00:09;24.88;;;15.88;;
74674;SDS011;63200;48.810;12.352;2024-03-23T01:02:35;21.85;;;13.32;;
74674;SDS011;63200;48.810;12.352;2024-03-23T01:05:01;24.08;;;14.25;;
74674;SDS011;63200;48.810;12.352;2024-03-23T01:07:27;21.77;;;13.88;;
74674;SDS011;63200;48.810;12.352;2024-03-23T01:09:52;22.45;;;13.98;;
74674;SDS011;63200;48.810;12.352;2024-03-23T01:12:18;17.88;;;13.05;;
74674;SDS011;63200;48.810;12.352;2024-03-23T01:14:43;21.17;;;13.57;;
74674;SDS011;63200;48.810;12.352;2024-03-23T01:17:08;20.95;;;13.15;;
74674;SDS011;63200;48.810;12.352;2024-03-23T01:19:34;22.48;;;13.30;;
74674;SDS011;63200;48.810;12.352;2024-03-23T01:21:59;19.58;;;12.57;;
74674;SDS011;63200;48.810;12.352;2024-03-23T01:24:25;24.58;;;13.82;;
74674;SDS011;63200;48.810;12.352;2024-03-23T01:26:50;21.02;;;13.07;;
74674;SDS011;63200;48.810;12.352;2024-03-23T01:29:15;26.52;;;14.23;;
74674;SDS011;63200;48.810;12.352;2024-03-23T01:31:40;25.48;;;15.63;;
74674;SDS011;63200;48.810;12.352;2024-03-23T01:34:06;17.70;;;11.65;;
74674;SDS011;63200;48.810;12.352;2024-03-23T01:36:31;20.67;;;12.80;;
74674;SDS011;63200;48.810;12.352;2024-03-23T01:38:56;18.85;;;12.38;;
74674;SDS011;63200;48.810;12.352;2024-03-23T01:41:23;20.83;;;12.57;;
74674;SDS011;63200;48.810;12.352;2024-03-23T01:43:49;22.42;;;13.93;;
74674;SDS011;63200;48.810;12.352;2024-03-23T01:46:14;20.15;;;12.52;;
74674;SDS011;63200;48.810;12.352;2024-03-23T01:48:40;25.38;;;13.50;;
74674;SDS011;63200;48.810;12.352;2024-03-23T01:51:05;18.63;;;12.27;;
74674;SDS011;63200;48.810;12.352;2024-03-23T01:53:31;18.75;;;11.60;;
74674;SDS011;63200;48.810;12.352;2024-03-23T01:55:56;24.88;;;13.88;;
74674;SDS011;63200;48.810;12.352;2024-03-23T01:58:22;23.67;;;13.70;;
74674;SDS011;63200;48.810;12.352;2024-03-23T02:00:47;19.27;;;12.52;;
74674;SDS011;63200;48.810;12.352;2024-03-23T02:03:25;22.27;;;12.48;;
74674;SDS011;63200;48.810;12.352;2024-03-23T02:05:51;15.57;;;11.27;;
74674;SDS011;63200;48.810;12.352;2024-03-23T02:08:18;19.98;;;12.20;;
74674;SDS011;63200;48.810;12.352;2024-03-23T02:10:45;15.02;;;10.38;;
74674;SDS011;63200;48.810;12.352;2024-03-23T02:13:10;21.42;;;12.43;;
74674;SDS011;63200;48.810;12.352;2024-03-23T02:15:36;14.35;;;9.65;;
74674;SDS011;63200;48.810;12.352;2024-03-23T02:18:02;18.58;;;10.48;;
74674;SDS011;63200;48.810;12.352;2024-03-23T02:20:27;20.15;;;11.32;;
74674;SDS011;63200;48.810;12.352;2024-03-23T02:22:55;16.65;;;11.20;;
74674;SDS011;63200;48.810;12.352;2024-03-23T02:25:20;18.65;;;11.77;;
74674;SDS011;63200;48.810;12.352;2024-03-23T02:27:46;23.33;;;12.65;;
74674;SDS011;63200;48.810;12.352;2024-03-23T02:30:11;22.00;;;13.68;;
74674;SDS011;63200;48.810;12.352;2024-03-23T02:32:36;23.00;;;14.30;;
74674;SDS011;63200;48.810;12.352;2024-03-23T02:35:02;23.55;;;11.90;;
74674;SDS011;63200;48.810;12.352;2024-03-23T02:37:27;17.75;;;10.23;;
74674;SDS011;63200;48.810;12.352;2024-03-23T02:39:52;13.60;;;9.07;;
74674;SDS011;63200;48.810;12.352;2024-03-23T02:42:18;15.75;;;9.93;;
74674;SDS011;63200;48.810;12.352;2024-03-23T02:44:44;13.75;;;9.05;;
74674;SDS011;63200;48.810;12.352;2024-03-23T02:47:10;20.92;;;11.35;;
74674;SDS011;63200;48.810;12.352;2024-03-23T02:49:35;20.20;;;10.35;;
74674;SDS011;63200;48.810;12.352;2024-03-23T02:52:00;18.85;;;11.15;;
74674;SDS011;63200;48.810;12.352;2024-03-23T02:54:26;15.45;;;9.05;;
74674;SDS011;63200;48.810;12.352;2024-03-23T02:56:51;14.88;;;10.35;;
74674;SDS011;63200;48.810;12.352;2024-03-23T02:59:16;14.98;;;10.18;;
74674;SDS011;63200;48.810;12.352;2024-03-23T03:01:41;15.85;;;10.05;;
74674;SDS011;63200;48.810;12.352;2024-03-23T03:04:07;14.15;;;10.35;;
74674;SDS011;63200;48.810;12.352;2024-03-23T03:06:32;16.88;;;9.80;;
74674;SDS011;63200;48.810;12.352;2024-03-23T03:08:58;13.95;;;8.85;;
74674;SDS011;63200;48.810;12.352;2024-03-23T03:11:23;12.90;;;8.50;;
74674;SDS011;63200;48.810;12.352;2024-03-23T03:13:48;15.07;;;9.30;;
74674;SDS011;63200;48.810;12.352;2024-03-23T03:16:14;16.90;;;9.15;;
74674;SDS011;63200;48.810;12.352;2024-03-23T03:18:39;17.15;;;8.70;;
74674;SDS011;63200;48.810;12.352;2024-03-23T03:21:05;12.82;;;8.40;;
74674;SDS011;63200;48.810;12.352;2024-03-23T03:23:35;12.88;;;8.20;;
74674;SDS011;63200;48.810;12.352;2024-03-23T03:26:03;10.40;;;8.32;;
74674;SDS011;63200;48.810;12.352;2024-03-23T03:28:30;10.80;;;8.10;;
74674;SDS011;63200;48.810;12.352;2024-03-23T03:30:57;11.00;;;8.13;;
74674;SDS011;63200;48.810;12.352;2024-03-23T03:33:23;10.55;;;7.85;;
74674;SDS011;63200;48.810;12.352;2024-03-23T03:35:48;11.00;;;7.85;;
74674;SDS011;63200;48.810;12.352;2024-03-23T03:38:14;10.68;;;7.60;;
74674;SDS011;63200;48.810;12.352;2024-03-23T03:40:39;11.88;;;8.27;;
74674;SDS011;63200;48.810;12.352;2024-03-23T03:43:06;12.60;;;7.25;;
74674;SDS011;63200;48.810;12.352;2024-03-23T03:45:31;11.07;;;6.97;;
74674;SDS011;63200;48.810;12.352;2024-03-23T03:47:57;10.57;;;6.50;;
74674;SDS011;63200;48.810;12.352;2024-03-23T03:50:22;10.80;;;7.30;;
74674;SDS011;63200;48.810;12.352;2024-03-23T03:52:47;8.68;;;6.43;;
74674;SDS011;63200;48.810;12.352;2024-03-23T03:55:13;8.25;;;6.70;;
74674;SDS011;63200;48.810;12.352;2024-03-23T03:57:39;11.68;;;6.78;;
74674;SDS011;63200;48.810;12.352;2024-03-23T04:00:05;8.63;;;6.10;;
74674;SDS011;63200;48.810;12.352;2024-03-23T04:02:31;7.50;;;5.90;;
74674;SDS011;63200;48.810;12.352;2024-03-23T04:04:56;10.05;;;6.50;;
74674;SDS011;63200;48.810;12.352;2024-03-23T04:07:22;7.85;;;6.50;;
74674;SDS011;63200;48.810;12.352;2024-03-23T04:09:48;9.15;;;5.95;;
74674;SDS011;63200;48.810;12.352;2024-03-23T04:12:14;8.20;;;6.15;;
74674;SDS011;63200;48.810;12.352;2024-03-23T04:14:40;7.40;;;5.78;;
74674;SDS011;63200;48.810;12.352;2024-03-23T04:17:05;10.35;;;6.00;;
74674;SDS011;63200;48.810;12.352;2024-03-23T04:19:31;8.68;;;6.03;;
74674;SDS011;63200;48.810;12.352;2024-03-23T04:21:56;8.15;;;5.95;;
74674;SDS011;63200;48.810;12.352;2024-03-23T04:24:22;7.18;;;5.97;;
74674;SDS011;63200;48.810;12.352;2024-03-23T04:26:47;10.90;;;5.93;;
74674;SDS011;63200;48.810;12.352;2024-03-23T04:29:13;6.70;;;5.80;;
74674;SDS011;63200;48.810;12.352;2024-03-23T04:31:38;8.90;;;5.32;;
74674;SDS011;63200;48.810;12.352;2024-03-23T04:34:04;7.25;;;5.13;;
74674;SDS011;63200;48.810;12.352;2024-03-23T04:36:29;8.43;;;5.57;;
74674;SDS011;63200;48.810;12.352;2024-03-23T04:38:55;7.07;;;5.35;;
74674;SDS011;63200;48.810;12.352;2024-03-23T04:41:21;7.32;;;5.07;;
74674;SDS011;63200;48.810;12.352;2024-03-23T04:43:47;6.05;;;4.85;;
74674;SDS011;63200;48.810;12.352;2024-03-23T04:46:12;6.10;;;5.00;;
74674;SDS011;63200;48.810;12.352;2024-03-23T04:48:37;5.38;;;4.60;;
74674;SDS011;63200;48.810;12.352;2024-03-23T04:51:03;6.40;;;5.20;;
74674;SDS011;63200;48.810;12.352;2024-03-23T04:53:29;5.78;;;4.43;;
74674;SDS011;63200;48.810;12.352;2024-03-23T04:55:55;9.20;;;4.28;;
74674;SDS011;63200;48.810;12.352;2024-03-23T04:58:22;7.38;;;4.65;;
74674;SDS011;63200;48.810;12.352;2024-03-23T05:00:48;6.15;;;4.70;;
74674;SDS011;63200;48.810;12.352;2024-03-23T05:03:17;4.68;;;4.22;;
74674;SDS011;63200;48.810;12.352;2024-03-23T05:05:44;8.57;;;4.47;;
74674;SDS011;63200;48.810;12.352;2024-03-23T05:08:09;5.20;;;4.30;;
74674;SDS011;63200;48.810;12.352;2024-03-23T05:10:34;7.65;;;4.57;;
74674;SDS011;63200;48.810;12.352;2024-03-23T05:13:00;5.85;;;4.68;;
74674;SDS011;63200;48.810;12.352;2024-03-23T05:15:26;7.22;;;3.97;;
74674;SDS011;63200;48.810;12.352;2024-03-23T05:17:51;4.28;;;3.88;;
74674;SDS011;63200;48.810;12.352;2024-03-23T05:20:16;6.38;;;4.18;;
74674;SDS011;63200;48.810;12.352;2024-03-23T05:22:43;5.78;;;4.05;;
74674;SDS011;63200;48.810;12.352;2024-03-23T05:25:08;5.93;;;4.53;;
74674;SDS011;63200;48.810;12.352;2024-03-23T05:27:34;7.97;;;4.45;;
74674;SDS011;63200;48.810;12.352;2024-03-23T05:30:00;6.60;;;4.85;;
74674;SDS011;63200;48.810;12.352;2024-03-23T05:32:25;4.80;;;4.32;;
74674;SDS011;63200;48.810;12.352;2024-03-23T05:34:50;5.03;;;4.22;;
74674;SDS011;63200;48.810;12.352;2024-03-23T05:37:20;6.53;;;3.90;;
74674;SDS011;63200;48.810;12.352;2024-03-23T05:39:46;6.00;;;4.03;;
74674;SDS011;63200;48.810;12.352;2024-03-23T05:42:13;5.28;;;4.32;;
74674;SDS011;63200;48.810;12.352;2024-03-23T05:44:39;6.30;;;4.28;;
74674;SDS011;63200;48.810;12.352;2024-03-23T05:47:04;7.47;;;4.35;;
74674;SDS011;63200;48.810;12.352;2024-03-23T05:49:30;3.92;;;3.63;;
74674;SDS011;63200;48.810;12.352;2024-03-23T05:51:55;4.22;;;3.83;;
74674;SDS011;63200;48.810;12.352;2024-03-23T05:54:20;4.85;;;3.83;;
74674;SDS011;63200;48.810;12.352;2024-03-23T05:56:46;4.20;;;3.85;;
74674;SDS011;63200;48.810;12.352;2024-03-23T05:59:11;6.40;;;4.10;;
74674;SDS011;63200;48.810;12.352;2024-03-23T06:01:37;6.50;;;4.07;;
74674;SDS011;63200;48.810;12.352;2024-03-23T06:04:03;5.72;;;3.50;;
74674;SDS011;63200;48.810;12.352;2024-03-23T06:06:29;4.60;;;4.00;;
74674;SDS011;63200;48.810;12.352;2024-03-23T06:08:55;4.35;;;3.95;;
74674;SDS011;63200;48.810;12.352;2024-03-23T06:11:20;4.47;;;3.90;;
74674;SDS011;63200;48.810;12.352;2024-03-23T06:13:46;3.90;;;3.60;;
74674;SDS011;63200;48.810;12.352;2024-03-23T06:16:11;4.50;;;4.10;;
74674;SDS011;63200;48.810;12.352;2024-03-23T06:18:36;5.55;;;3.88;;
74674;SDS011;63200;48.810;12.352;2024-03-23T06:21:01;4.47;;;4.03;;
74674;SDS011;63200;48.810;12.352;2024-03-23T06:23:27;5.07;;;3.97;;
74674;SDS011;63200;48.810;12.352;2024-03-23T06:25:52;4.40;;;4.00;;
74674;SDS011;63200;48.810;12.352;2024-03-23T06:28:17;11.63;;;4.65;;
74674;SDS011;63200;48.810;12.352;2024-03-23T06:30:43;7.53;;;4.38;;
74674;SDS011;63200;48.810;12.352;2024-03-23T06:33:08;6.88;;;4.18;;
74674;SDS011;63200;48.810;12.352;2024-03-23T06:35:34;5.70;;;3.75;;
74674;SDS011;63200;48.810;12.352;2024-03-23T06:37:59;4.47;;;3.47;;
74674;SDS011;63200;48.810;12.352;2024-03-23T06:40:24;4.20;;;3.47;;
74674;SDS011;63200;48.810;12.352;2024-03-23T06:42:50;5.10;;;3.38;;
74674;SDS011;63200;48.810;12.352;2024-03-23T06:45:16;5.50;;;3.00;;
74674;SDS011;63200;48.810;12.352;2024-03-23T06:47:41;5.20;;;3.20;;
74674;SDS011;63200;48.810;12.352;2024-03-23T06:50:07;3.20;;;3.00;;
74674;SDS011;63200;48.810;12.352;2024-03-23T06:52:32;2.88;;;2.67;;
74674;SDS011;63200;48.810;12.352;2024-03-23T06:54:57;3.42;;;3.15;;
74674;SDS011;63200;48.810;12.352;2024-03-23T06:57:23;2.75;;;2.60;;
74674;SDS011;63200;48.810;12.352;2024-03-23T06:59:48;2.95;;;2.75;;
74674;SDS011;63200;48.810;12.352;2024-03-23T07:02:14;2.58;;;2.47;;
74674;SDS011;63200;48.810;12.352;2024-03-23T07:04:39;2.83;;;2.60;;
74674;SDS011;63200;48.810;12.352;2024-03-23T07:07:04;4.43;;;2.88;;
74674;SDS011;63200;48.810;12.352;2024-03-23T07:09:30;2.88;;;2.67;;
74674;SDS011;63200;48.810;12.352;2024-03-23T07:11:58;4.35;;;2.50;;
74674;SDS011;63200;48.810;12.352;2024-03-23T07:14:23;2.50;;;2.30;;
74674;SDS011;63200;48.810;12.352;2024-03-23T07:16:49;3.13;;;2.40;;
74674;SDS011;63200;48.810;12.352;2024-03-23T07:19:15;2.67;;;2.42;;
74674;SDS011;63200;48.810;12.352;2024-03-23T07:21:44;2.30;;;2.15;;
74674;SDS011;63200;48.810;12.352;2024-03-23T07:24:10;1.90;;;1.80;;
74674;SDS011;63200;48.810;12.352;2024-03-23T07:26:36;2.15;;;2.05;;
74674;SDS011;63200;48.810;12.352;2024-03-23T07:29:03;2.10;;;2.00;;
74674;SDS011;63200;48.810;12.352;2024-03-23T07:31:28;4.90;;;2.20;;
74674;SDS011;63200;48.810;12.352;2024-03-23T07:33:54;2.65;;;2.42;;
74674;SDS011;63200;48.810;12.352;2024-03-23T07:36:19;2.00;;;1.90;;
74674;SDS011;63200;48.810;12.352;2024-03-23T07:38:44;5.22;;;2.15;;
74674;SDS011;63200;48.810;12.352;2024-03-23T07:41:17;2.05;;;1.95;;
74674;SDS011;63200;48.810;12.352;2024-03-23T07:43:44;4.25;;;1.67;;
74674;SDS011;63200;48.810;12.352;2024-03-23T07:46:09;1.92;;;1.70;;
74674;SDS011;63200;48.810;12.352;2024-03-23T07:48:35;2.63;;;2.42;;
74674;SDS011;63200;48.810;12.352;2024-03-23T07:51:01;1.80;;;1.70;;
74674;SDS011;63200;48.810;12.352;2024-03-23T07:53:32;3.03;;;2.13;;
74674;SDS011;63200;48.810;12.352;2024-03-23T07:55:58;2.33;;;2.13;;
74674;SDS011;63200;48.810;12.352;2024-03-23T07:58:27;3.42;;;2.50;;
74674;SDS011;63200;48.810;12.352;2024-03-23T08:00:54;2.42;;;2.22;;
74674;SDS011;63200;48.810;12.352;2024-03-23T08:03:20;2.55;;;2.35;;
74674;SDS011;63200;48.810;12.352;2024-03-23T08:05:45;2.35;;;2.08;;
74674;SDS011;63200;48.810;12.352;2024-03-23T08:08:11;2.05;;;1.95;;
74674;SDS011;63200;48.810;12.352;2024-03-23T08:10:37;1.48;;;1.45;;
74674;SDS011;63200;48.810;12.352;2024-03-23T08:13:11;1.70;;;1.60;;
74674;SDS011;63200;48.810;12.352;2024-03-23T08:15:36;2.90;;;1.98;;
74674;SDS011;63200;48.810;12.352;2024-03-23T08:18:02;4.00;;;2.47;;
74674;SDS011;63200;48.810;12.352;2024-03-23T08:20:28;3.35;;;2.70;;
74674;SDS011;63200;48.810;12.352;2024-03-23T08:22:53;3.08;;;2.88;;
74674;SDS011;63200;48.810;12.352;2024-03-23T08:25:18;8.57;;;2.83;;
74674;SDS011;63200;48.810;12.352;2024-03-23T08:27:44;2.30;;;2.20;;
74674;SDS011;63200;48.810;12.352;2024-03-23T08:30:10;5.20;;;3.28;;
74674;SDS011;63200;48.810;12.352;2024-03-23T08:32:36;3.53;;;2.58;;
74674;SDS011;63200;48.810;12.352;2024-03-23T08:35:01;5.38;;;2.83;;
74674;SDS011;63200;48.810;12.352;2024-03-23T08:37:27;3.15;;;2.85;;
74674;SDS011;63200;48.810;12.352;2024-03-23T08:39:52;2.70;;;2.50;;
74674;SDS011;63200;48.810;12.352;2024-03-23T08:42:18;1.92;;;1.77;;
74674;SDS011;63200;48.810;12.352;2024-03-23T08:44:43;2.67;;;2.47;;
74674;SDS011;63200;48.810;12.352;2024-03-23T08:47:11;2.08;;;1.48;;
74674;SDS011;63200;48.810;12.352;2024-03-23T08:49:36;4.05;;;2.85;;
74674;SDS011;63200;48.810;12.352;2024-03-23T08:52:02;2.97;;;2.72;;
74674;SDS011;63200;48.810;12.352;2024-03-23T08:54:27;1.42;;;1.35;;
74674;SDS011;63200;48.810;12.352;2024-03-23T08:56:54;1.90;;;1.80;;
74674;SDS011;63200;48.810;12.352;2024-03-23T08:59:19;2.60;;;2.40;;
74674;SDS011;63200;48.810;12.352;2024-03-23T09:01:45;3.13;;;2.38;;
74674;SDS011;63200;48.810;12.352;2024-03-23T09:04:10;6.43;;;2.35;;
74674;SDS011;63200;48.810;12.352;2024-03-23T09:06:35;3.17;;;2.80;;
74674;SDS011;63200;48.810;12.352;2024-03-23T09:09:01;1.65;;;1.55;;
74674;SDS011;63200;48.810;12.352;2024-03-23T09:11:27;1.77;;;1.67;;
74674;SDS011;63200;48.810;12.352;2024-03-23T09:13:52;2.63;;;2.42;;
74674;SDS011;63200;48.810;12.352;2024-03-23T09:16:17;5.18;;;2.20;;
74674;SDS011;63200;48.810;12.352;2024-03-23T09:18:42;2.78;;;2.53;;
74674;SDS011;63200;48.810;12.352;2024-03-23T09:21:11;3.97;;;2.88;;
74674;SDS011;63200;48.810;12.352;2024-03-23T09:23:38;4.63;;;3.00;;
74674;SDS011;63200;48.810;12.352;2024-03-23T09:26:04;3.40;;;3.00;;
74674;SDS011;63200;48.810;12.352;2024-03-23T09:28:29;4.15;;;2.47;;
74674;SDS011;63200;48.810;12.352;2024-03-23T09:30:55;3.38;;;3.08;;
74674;SDS011;63200;48.810;12.352;2024-03-23T09:33:26;3.88;;;2.70;;
74674;SDS011;63200;48.810;12.352;2024-03-23T09:35:52;2.55;;;2.35;;
74674;SDS011;63200;48.810;12.352;2024-03-23T09:38:17;2.92;;;2.47;;
74674;SDS011;63200;48.810;12.352;2024-03-23T09:40:42;4.15;;;3.05;;
74674;SDS011;63200;48.810;12.352;2024-03-23T09:43:08;5.93;;;3.60;;
74674;SDS011;63200;48.810;12.352;2024-03-23T09:45:35;3.15;;;2.85;;
74674;SDS011;63200;48.810;12.352;2024-03-23T09:48:03;3.50;;;3.20;;
74674;SDS011;63200;48.810;12.352;2024-03-23T09:50:29;3.35;;;3.03;;
74674;SDS011;63200;48.810;12.352;2024-03-23T09:52:54;4.38;;;3.22;;
74674;SDS011;63200;48.810;12.352;2024-03-23T09:55:20;3.92;;;3.53;;
74674;SDS011;63200;48.810;12.352;2024-03-23T09:57:45;6.40;;;2.88;;
74674;SDS011;63200;48.810;12.352;2024-03-23T10:00:10;2.00;;;1.77;;
74674;SDS011;63200;48.810;12.352;2024-03-23T10:02:37;2.95;;;2.63;;
74674;SDS011;63200;48.810;12.352;2024-03-23T10:05:02;1.98;;;1.77;;
74674;SDS011;63200;48.810;12.352;2024-03-23T10:07:29;2.72;;;2.53;;
74674;SDS011;63200;48.810;12.352;2024-03-23T10:09:54;2.38;;;2.17;;
74674;SDS011;63200;48.810;12.352;2024-03-23T10:12:20;3.08;;;2.75;;
74674;SDS011;63200;48.810;12.352;2024-03-23T10:14:46;4.55;;;1.65;;
74674;SDS011;63200;48.810;12.352;2024-03-23T10:17:18;3.38;;;3.17;;
74674;SDS011;63200;48.810;12.352;2024-03-23T10:22:18;1.40;;;1.30;;
74674;SDS011;63200;48.810;12.352;2024-03-23T10:24:43;2.28;;;2.03;;
74674;SDS011;63200;48.810;12.352;2024-03-23T10:27:09;2.30;;;2.10;;
74674;SDS011;63200;48.810;12.352;2024-03-23T10:29:34;3.13;;;2.20;;
74674;SDS011;63200;48.810;12.352;2024-03-23T10:32:09;1.80;;;1.70;;
74674;SDS011;63200;48.810;12.352;2024-03-23T10:34:36;3.05;;;1.85;;
74674;SDS011;63200;48.810;12.352;2024-03-23T10:37:02;2.05;;;1.95;;
74674;SDS011;63200;48.810;12.352;2024-03-23T10:39:32;1.48;;;1.38;;
74674;SDS011;63200;48.810;12.352;2024-03-23T10:42:00;1.95;;;1.83;;
74674;SDS011;63200;48.810;12.352;2024-03-23T10:44:27;1.92;;;1.50;;
74674;SDS011;63200;48.810;12.352;2024-03-23T10:46:55;1.25;;;1.25;;
74674;SDS011;63200;48.810;12.352;2024-03-23T10:49:25;2.38;;;2.17;;
74674;SDS011;63200;48.810;12.352;2024-03-23T10:51:51;1.42;;;1.33;;
74674;SDS011;63200;48.810;12.352;2024-03-23T10:54:18;1.05;;;1.05;;
74674;SDS011;63200;48.810;12.352;2024-03-23T10:56:43;5.55;;;1.20;;
74674;SDS011;63200;48.810;12.352;2024-03-23T10:59:10;0.95;;;0.95;;
74674;SDS011;63200;48.810;12.352;2024-03-23T11:01:53;1.15;;;1.10;;
74674;SDS011;63200;48.810;12.352;2024-03-23T11:04:35;1.02;;;0.98;;
74674;SDS011;63200;48.810;12.352;2024-03-23T11:09:48;1.45;;;0.95;;
74674;SDS011;63200;48.810;12.352;2024-03-23T11:14:48;0.95;;;0.95;;
74674;SDS011;63200;48.810;12.352;2024-03-23T11:17:17;1.30;;;1.20;;
74674;SDS011;63200;48.810;12.352;2024-03-23T11:19:43;0.95;;;0.95;;
74674;SDS011;63200;48.810;12.352;2024-03-23T11:22:09;1.20;;;0.93;;
74674;SDS011;63200;48.810;12.352;2024-03-23T11:24:34;0.77;;;0.77;;
74674;SDS011;63200;48.810;12.352;2024-03-23T11:27:00;0.77;;;0.77;;
74674;SDS011;63200;48.810;12.352;2024-03-23T11:29:28;1.77;;;1.67;;
74674;SDS011;63200;48.810;12.352;2024-03-23T11:31:54;1.13;;;1.13;;
74674;SDS011;63200;48.810;12.352;2024-03-23T11:34:20;2.83;;;1.10;;
74674;SDS011;63200;48.810;12.352;2024-03-23T11:36:45;0.70;;;0.70;;
74674;SDS011;63200;48.810;12.352;2024-03-23T11:39:18;0.80;;;0.80;;
74674;SDS011;63200;48.810;12.352;2024-03-23T11:44:21;1.00;;;1.00;;
74674;SDS011;63200;48.810;12.352;2024-03-23T11:46:48;1.00;;;1.00;;
74674;SDS011;63200;48.810;12.352;2024-03-23T11:51:49;0.90;;;0.90;;
74674;SDS011;63200;48.810;12.352;2024-03-23T11:54:16;0.63;;;0.63;;
74674;SDS011;63200;48.810;12.352;2024-03-23T11:56:53;0.80;;;0.80;;
74674;SDS011;63200;48.810;12.352;2024-03-23T11:59:32;0.80;;;0.80;;
74674;SDS011;63200;48.810;12.352;2024-03-23T12:01:59;0.90;;;0.90;;
74674;SDS011;63200;48.810;12.352;2024-03-23T12:04:25;0.90;;;0.90;;
74674;SDS011;63200;48.810;12.352;2024-03-23T12:06:51;0.70;;;0.70;;
74674;SDS011;63200;48.810;12.352;2024-03-23T12:09:47;1.10;;;0.75;;
74674;SDS011;63200;48.810;12.352;2024-03-23T12:12:28;0.60;;;0.60;;
74674;SDS011;63200;48.810;12.352;2024-03-23T12:17:28;0.93;;;0.93;;
74674;SDS011;63200;48.810;12.352;2024-03-23T12:19:54;0.88;;;0.88;;
74674;SDS011;63200;48.810;12.352;2024-03-23T12:22:22;0.85;;;0.77;;
74674;SDS011;63200;48.810;12.352;2024-03-23T12:24:48;0.55;;;0.55;;
74674;SDS011;63200;48.810;12.352;2024-03-23T12:27:14;1.30;;;1.00;;
74674;SDS011;63200;48.810;12.352;2024-03-23T12:29:40;1.50;;;1.00;;
74674;SDS011;63200;48.810;12.352;2024-03-23T12:32:06;0.80;;;0.80;;
74674;SDS011;63200;48.810;12.352;2024-03-23T12:34:32;1.42;;;1.23;;
74674;SDS011;63200;48.810;12.352;2024-03-23T12:36:57;0.82;;;0.82;;
74674;SDS011;63200;48.810;12.352;2024-03-23T12:39:22;0.95;;;0.95;;
74674;SDS011;63200;48.810;12.352;2024-03-23T12:41:48;0.90;;;0.90;;
74674;SDS011;63200;48.810;12.352;2024-03-23T12:44:14;1.50;;;1.40;;
74674;SDS011;63200;48.810;12.352;2024-03-23T12:46:40;1.45;;;0.95;;
74674;SDS011;63200;48.810;12.352;2024-03-23T12:49:06;1.30;;;1.30;;
74674;SDS011;63200;48.810;12.352;2024-03-23T12:51:31;1.05;;;0.98;;
74674;SDS011;63200;48.810;12.352;2024-03-23T12:53:57;4.80;;;1.40;;
74674;SDS011;63200;48.810;12.352;2024-03-23T12:56:22;1.05;;;1.05;;
74674;SDS011;63200;48.810;12.352;2024-03-23T12:58:48;1.10;;;1.10;;
74674;SDS011;63200;48.810;12.352;2024-03-23T13:01:16;0.90;;;0.90;;
74674;SDS011;63200;48.810;12.352;2024-03-23T13:03:41;1.00;;;1.00;;
74674;SDS011;63200;48.810;12.352;2024-03-23T13:06:09;0.75;;;0.75;;
74674;SDS011;63200;48.810;12.352;2024-03-23T13:08:34;0.90;;;0.90;;
74674;SDS011;63200;48.810;12.352;2024-03-23T13:11:00;0.60;;;0.60;;
74674;SDS011;63200;48.810;12.352;2024-03-23T13:13:25;1.00;;;1.00;;
74674;SDS011;63200;48.810;12.352;2024-03-23T13:15:50;1.30;;;1.20;;
74674;SDS011;63200;48.810;12.352;2024-03-23T13:18:16;0.90;;;0.90;;
74674;SDS011;63200;48.810;12.352;2024-03-23T13:20:41;2.80;;;1.17;;
74674;SDS011;63200;48.810;12.352;2024-03-23T13:23:06;1.23;;;1.23;;
74674;SDS011;63200;48.810;12.352;2024-03-23T13:25:32;0.95;;;0.95;;
74674;SDS011;63200;48.810;12.352;2024-03-23T13:27:58;2.10;;;1.13;;
74674;SDS011;63200;48.810;12.352;2024-03-23T13:30:23;2.63;;;1.20;;
74674;SDS011;63200;48.810;12.352;2024-03-23T13:32:48;1.10;;;0.80;;
74674;SDS011;63200;48.810;12.352;2024-03-23T13:35:14;1.38;;;0.82;;
74674;SDS011;63200;48.810;12.352;2024-03-23T13:37:39;0.80;;;0.77;;
74674;SDS011;63200;48.810;12.352;2024-03-23T13:40:05;1.80;;;1.70;;
74674;SDS011;63200;48.810;12.352;2024-03-23T13:42:31;1.63;;;1.52;;
74674;SDS011;63200;48.810;12.352;2024-03-23T13:44:56;1.63;;;1.63;;
74674;SDS011;63200;48.810;12.352;2024-03-23T13:47:22;3.15;;;1.40;;
74674;SDS011;63200;48.810;12.352;2024-03-23T13:49:47;1.50;;;1.40;;
74674;SDS011;63200;48.810;12.352;2024-03-23T13:52:14;2.38;;;1.60;;
74674;SDS011;63200;48.810;12.352;2024-03-23T13:54:39;1.45;;;1.45;;
74674;SDS011;63200;48.810;12.352;2024-03-23T13:57:10;2.28;;;1.40;;
74674;SDS011;63200;48.810;12.352;2024-03-23T13:59:35;4.97;;;1.40;;
74674;SDS011;63200;48.810;12.352;2024-03-23T14:02:01;1.30;;;1.05;;
74674;SDS011;63200;48.810;12.352;2024-03-23T14:04:26;1.60;;;1.40;;
74674;SDS011;63200;48.810;12.352;2024-03-23T14:06:51;2.38;;;1.40;;
74674;SDS011;63200;48.810;12.352;2024-03-23T14:09:17;1.60;;;1.50;;
74674;SDS011;63200;48.810;12.352;2024-03-23T14:11:46;1.80;;;1.58;;
74674;SDS011;63200;48.810;12.352;2024-03-23T14:14:12;2.30;;;1.50;;
74674;SDS011;63200;48.810;12.352;2024-03-23T14:16:37;1.75;;;1.40;;
74674;SDS011;63200;48.810;12.352;2024-03-23T14:19:03;3.13;;;1.67;;
74674;SDS011;63200;48.810;12.352;2024-03-23T14:21:30;4.90;;;1.67;;
74674;SDS011;63200;48.810;12.352;2024-03-23T14:23:55;1.75;;;1.40;;
74674;SDS011;63200;48.810;12.352;2024-03-23T14:26:21;2.13;;;1.50;;
74674;SDS011;63200;48.810;12.352;2024-03-23T14:28:46;1.70;;;1.20;;
74674;SDS011;63200;48.810;12.352;2024-03-23T14:31:12;2.00;;;1.70;;
74674;SDS011;63200;48.810;12.352;2024-03-23T14:33:37;4.05;;;1.17;;
74674;SDS011;63200;48.810;12.352;2024-03-23T14:36:03;3.63;;;1.63;;
74674;SDS011;63200;48.810;12.352;2024-03-23T14:38:29;2.28;;;1.85;;
74674;SDS011;63200;48.810;12.352;2024-03-23T14:40:58;2.70;;;1.80;;
74674;SDS011;63200;48.810;12.352;2024-03-23T14:43:24;1.50;;;1.40;;
74674;SDS011;63200;48.810;12.352;2024-03-23T14:46:08;2.13;;;1.70;;
74674;SDS011;63200;48.810;12.352;2024-03-23T14:48:35;5.10;;;2.05;;
74674;SDS011;63200;48.810;12.352;2024-03-23T14:51:01;1.85;;;1.67;;
74674;SDS011;63200;48.810;12.352;2024-03-23T14:53:31;3.80;;;1.77;;
74674;SDS011;63200;48.810;12.352;2024-03-23T14:55:57;2.58;;;1.88;;
74674;SDS011;63200;48.810;12.352;2024-03-23T14:58:22;2.78;;;1.80;;
74674;SDS011;63200;48.810;12.352;2024-03-23T15:00:48;1.90;;;1.48;;
74674;SDS011;63200;48.810;12.352;2024-03-23T15:03:14;2.30;;;2.10;;
74674;SDS011;63200;48.810;12.352;2024-03-23T15:05:39;3.20;;;2.05;;
74674;SDS011;63200;48.810;12.352;2024-03-23T15:08:05;2.63;;;1.85;;
74674;SDS011;63200;48.810;12.352;2024-03-23T15:10:32;1.50;;;1.40;;
74674;SDS011;63200;48.810;12.352;2024-03-23T15:12:58;3.60;;;1.90;;
74674;SDS011;63200;48.810;12.352;2024-03-23T15:15:23;5.00;;;2.47;;
74674;SDS011;63200;48.810;12.352;2024-03-23T15:17:48;3.58;;;2.33;;
74674;SDS011;63200;48.810;12.352;2024-03-23T15:20:15;6.60;;;2.72;;
74674;SDS011;63200;48.810;12.352;2024-03-23T15:22:40;4.35;;;2.47;;
74674;SDS011;63200;48.810;12.352;2024-03-23T15:25:07;2.85;;;2.58;;
74674;SDS011;63200;48.810;12.352;2024-03-23T15:27:33;8.18;;;2.45;;
74674;SDS011;63200;48.810;12.352;2024-03-23T15:29:58;4.80;;;2.67;;
74674;SDS011;63200;48.810;12.352;2024-03-23T15:32:23;6.25;;;3.08;;
74674;SDS011;63200;48.810;12.352;2024-03-23T15:34:49;4.10;;;2.70;;